Time;durP1;ratioP1;P1;durP2;ratioP2;P2;SDS_P1;SDS_P2;PMS_P1;PMS_P2;Temp;Humidity;BMP_temperature;BMP_pressure;BME280_temperature;BME280_humidity;BME280_pressure;Samples;Min_cycle;Max_cycle;Signal;HPM_P1;HPM_P2
2023/01/06 00:00:28;;;;;;;;;;;5.60;99.90;;;;;;4993881;28;19921;-78
2023/01/06 00:02:56;;;;;;;;;;;5.10;99.90;;;;;;4974188;28;20569;-80
2023/01/06 00:05:22;;;;;;;;;;;5.00;99.90;;;;;;4988932;28;20005;-78
2023/01/06 00:07:49;;;;;;;;;;;5.00;99.90;;;;;;4996810;28;19953;-78
2023/01/06 00:10:15;;;;;;;;;;;4.90;99.90;;;;;;4997256;28;19935;-78
2023/01/06 00:12:44;;;;;;;;;;;6.70;99.90;;;;;;4994479;28;19916;-78
2023/01/06 00:15:10;;;;;;;;;;;5.00;99.90;;;;;;4994950;28;19913;-80
2023/01/06 00:17:35;;;;;;;;;;;5.00;99.90;;;;;;4993223;28;19945;-78
2023/01/06 00:20:02;;;;;;;;;;;5.10;99.90;;;;;;4989288;28;19914;-79
2023/01/06 00:22:28;;;;;;;;;;;5.10;99.90;;;;;;4979218;28;19949;-77
2023/01/06 00:25:14;;;;;;;;;;;5.10;99.90;;;;;;4999359;28;19940;-80
2023/01/06 00:27:40;;;;;;;;;;;5.20;99.90;;;;;;4995134;28;20438;-79
2023/01/06 00:30:06;;;;;;;;;;;5.20;99.90;;;;;;4995485;28;19910;-78
2023/01/06 00:32:33;;;;;;;;;;;5.30;99.90;;;;;;4991346;28;20001;-77
2023/01/06 00:34:59;;;;;;;;;;;5.30;99.90;;;;;;4991900;28;19914;-79
2023/01/06 00:37:24;;;;;;;;;;;5.40;99.90;;;;;;4985859;28;20732;-81
2023/01/06 00:39:50;;;;;;;;;;;5.30;99.90;;;;;;4967851;28;19968;-79
2023/01/06 00:42:15;;;;;;;;;;;5.20;99.90;;;;;;4983285;28;19973;-80
2023/01/06 00:44:41;;;;;;;;;;;5.30;99.90;;;;;;4983057;28;19910;-79
2023/01/06 00:47:07;;;;;;;;;;;5.30;99.90;;;;;;5007732;28;19970;-79
2023/01/06 00:49:33;;;;;;;;;;;5.20;99.90;;;;;;5005148;28;19910;-79
2023/01/06 00:51:59;;;;;;;;;;;5.20;99.90;;;;;;5010331;28;19968;-78
2023/01/06 00:54:24;;;;;;;;;;;5.20;99.90;;;;;;5012777;28;19910;-77
2023/01/06 00:56:51;;;;;;;;;;;5.30;99.90;;;;;;5009244;28;19963;-78
2023/01/06 00:59:19;;;;;;;;;;;5.10;99.90;;;;;;4999441;28;19914;-79
2023/01/06 01:01:47;;;;;;;;;;;5.90;99.90;;;;;;4995503;28;19976;-79
2023/01/06 01:04:13;;;;;;;;;;;5.00;99.90;;;;;;4987212;28;19953;-76
2023/01/06 01:06:40;;;;;;;;;;;5.10;99.90;;;;;;4994667;28;19914;-78
2023/01/06 01:09:06;;;;;;;;;;;5.00;99.90;;;;;;4992628;28;20403;-79
2023/01/06 01:14:20;;;;;;;;;;;5.10;99.90;;;;;;4994089;28;20702;-78
2023/01/06 01:16:45;;;;;;;;;;;5.10;99.90;;;;;;4991474;28;19912;-78
2023/01/06 01:19:14;;;;;;;;;;;5.50;99.90;;;;;;4991694;28;19914;-78
2023/01/06 01:21:42;;;;;;;;;;;5.00;99.90;;;;;;4996194;28;19980;-79
2023/01/06 01:24:08;;;;;;;;;;;5.00;99.90;;;;;;4994280;28;19932;-78
2023/01/06 01:26:33;;;;;;;;;;;4.90;99.90;;;;;;4979817;28;20561;-79
2023/01/06 01:28:59;;;;;;;;;;;4.80;99.90;;;;;;4994010;28;19921;-78
2023/01/06 01:31:25;;;;;;;;;;;4.90;99.90;;;;;;4991428;28;20176;-76
2023/01/06 01:33:51;;;;;;;;;;;4.90;99.90;;;;;;4984173;28;19910;-78
2023/01/06 01:36:17;;;;;;;;;;;4.80;99.90;;;;;;5000049;28;19910;-77
2023/01/06 01:38:43;;;;;;;;;;;4.80;99.90;;;;;;4980193;28;19910;-80
2023/01/06 01:41:12;;;;;;;;;;;4.80;99.90;;;;;;4999987;28;19924;-80
2023/01/06 01:43:51;;;;;;;;;;;4.90;99.90;;;;;;4999800;28;19929;-80
2023/01/06 01:46:20;;;;;;;;;;;4.70;99.90;;;;;;5000577;28;19933;-78
2023/01/06 01:48:50;;;;;;;;;;;4.60;99.90;;;;;;4984568;28;19922;-79
2023/01/06 01:51:19;;;;;;;;;;;4.60;99.90;;;;;;5002077;28;19918;-79
2023/01/06 01:53:50;;;;;;;;;;;4.60;99.90;;;;;;4995992;28;19949;-77
2023/01/06 01:56:19;;;;;;;;;;;4.50;99.90;;;;;;5001595;28;19917;-79
2023/01/06 01:58:48;;;;;;;;;;;4.50;99.90;;;;;;4994501;28;19921;-79
2023/01/06 02:01:14;;;;;;;;;;;4.40;99.90;;;;;;4991872;28;20549;-77
2023/01/06 02:03:40;;;;;;;;;;;4.10;99.90;;;;;;4988467;28;20513;-79
2023/01/06 02:06:11;;;;;;;;;;;6.70;99.90;;;;;;4991296;28;20478;-77
2023/01/06 02:08:43;;;;;;;;;;;4.30;99.90;;;;;;4997602;28;19906;-79
2023/01/06 02:11:10;;;;;;;;;;;4.40;99.90;;;;;;4995908;28;19943;-78
2023/01/06 02:13:37;;;;;;;;;;;4.40;99.90;;;;;;4995854;28;19960;-78
2023/01/06 02:16:09;;;;;;;;;;;4.30;99.90;;;;;;4995912;28;19909;-79
2023/01/06 02:18:49;;;;;;;;;;;4.30;99.90;;;;;;4997273;28;19924;-78
2023/01/06 02:21:22;;;;;;;;;;;4.30;99.90;;;;;;4994431;28;20543;-79
2023/01/06 02:24:07;;;;;;;;;;;4.20;99.90;;;;;;4992832;28;20550;-78
2023/01/06 02:26:51;;;;;;;;;;;4.20;99.90;;;;;;4994234;28;19913;-79
2023/01/06 02:29:16;;;;;;;;;;;4.20;99.90;;;;;;4988101;28;19933;-77
2023/01/06 02:32:01;;;;;;;;;;;4.20;99.90;;;;;;4991906;28;19913;-79
2023/01/06 02:34:30;;;;;;;;;;;7.70;99.90;;;;;;4993287;28;19910;-79
2023/01/06 02:37:05;;;;;;;;;;;4.20;99.90;;;;;;4996613;28;19909;-78
2023/01/06 02:39:49;;;;;;;;;;;4.20;99.90;;;;;;4997691;28;19985;-78
2023/01/06 02:42:17;;;;;;;;;;;4.20;99.90;;;;;;5002040;28;19950;-78
2023/01/06 02:45:02;;;;;;;;;;;4.20;99.90;;;;;;5003937;28;19940;-79
2023/01/06 02:47:33;;;;;;;;;;;4.20;99.90;;;;;;5003506;28;19956;-78
2023/01/06 02:50:21;;;;;;;;;;;4.30;99.90;;;;;;5001941;28;19922;-79
2023/01/06 02:52:56;;;;;;;;;;;4.20;99.90;;;;;;5001777;28;19936;-78
2023/01/06 02:55:25;;;;;;;;;;;4.40;99.90;;;;;;5002635;28;20381;-78
2023/01/06 02:57:54;;;;;;;;;;;4.50;99.90;;;;;;5006445;28;19910;-77
2023/01/06 03:00:26;;;;;;;;;;;4.50;99.90;;;;;;5006143;28;19979;-80
2023/01/06 03:02:54;;;;;;;;;;;4.70;99.90;;;;;;5003788;28;19910;-79
2023/01/06 03:05:22;;;;;;;;;;;4.90;99.90;;;;;;4996425;28;19917;-79
2023/01/06 03:07:48;;;;;;;;;;;4.90;99.90;;;;;;4996376;28;20523;-78
2023/01/06 03:10:18;;;;;;;;;;;4.80;99.90;;;;;;4994187;28;19917;-79
2023/01/06 03:12:52;;;;;;;;;;;4.70;99.90;;;;;;4996096;28;19941;-80
2023/01/06 03:15:17;;;;;;;;;;;4.60;99.90;;;;;;4997364;28;19956;-79
2023/01/06 03:17:43;;;;;;;;;;;4.60;99.90;;;;;;4996725;28;19913;-79
2023/01/06 03:20:10;;;;;;;;;;;4.50;99.90;;;;;;4991325;28;19906;-80
2023/01/06 03:22:39;;;;;;;;;;;4.50;99.90;;;;;;4996932;28;19957;-79
2023/01/06 03:25:06;;;;;;;;;;;4.40;99.90;;;;;;4995085;28;19964;-78
2023/01/06 03:27:32;;;;;;;;;;;4.40;99.90;;;;;;4994501;28;20012;-77
2023/01/06 03:29:59;;;;;;;;;;;4.40;99.90;;;;;;4999661;28;19917;-81
2023/01/06 03:32:40;;;;;;;;;;;4.30;99.90;;;;;;5001906;28;19910;-79
2023/01/06 03:35:09;;;;;;;;;;;4.20;99.90;;;;;;4994699;28;19913;-77
2023/01/06 03:37:49;;;;;;;;;;;4.20;99.90;;;;;;4996331;28;19921;-77
2023/01/06 03:40:15;;;;;;;;;;;4.20;99.90;;;;;;4997429;28;20032;-78
2023/01/06 03:45:40;;;;;;;;;;;4.10;99.90;;;;;;4997178;28;19952;-77
2023/01/06 03:48:24;;;;;;;;;;;4.00;99.90;;;;;;4996254;28;19947;-78
2023/01/06 03:51:11;;;;;;;;;;;4.00;99.90;;;;;;4982359;28;19922;-78
2023/01/06 03:53:51;;;;;;;;;;;4.00;99.90;;;;;;4993719;28;19986;-79
2023/01/06 03:56:30;;;;;;;;;;;3.90;99.90;;;;;;5000213;28;19971;-79
2023/01/06 03:58:57;;;;;;;;;;;3.80;99.90;;;;;;4963050;28;19914;-79
2023/01/06 04:01:25;;;;;;;;;;;3.70;99.90;;;;;;4992375;28;19917;-78
2023/01/06 04:03:52;;;;;;;;;;;3.70;99.90;;;;;;4987865;28;20617;-76
2023/01/06 04:06:17;;;;;;;;;;;3.70;99.90;;;;;;4986588;28;19920;-78
2023/01/06 04:08:43;;;;;;;;;;;3.70;99.90;;;;;;4974220;28;19973;-78
2023/01/06 04:12:37;;;;;;;;;;;3.70;99.90;;;;;;5003391;28;19918;-76
2023/01/06 04:13:54;;;;;;;;;;;3.70;99.90;;;;;;4974220;28;19914;-78
2023/01/06 04:16:20;;;;;;;;;;;2.80;99.90;;;;;;4977110;28;20506;-78
2023/01/06 04:18:47;;;;;;;;;;;3.60;99.90;;;;;;4979361;28;19940;-78
2023/01/06 04:21:14;;;;;;;;;;;2.40;99.90;;;;;;4976403;28;20009;-78
2023/01/06 04:23:40;;;;;;;;;;;3.60;99.90;;;;;;4993791;28;19917;-78
2023/01/06 04:26:05;;;;;;;;;;;3.50;99.90;;;;;;4997679;28;19909;-77
2023/01/06 04:28:31;;;;;;;;;;;3.50;99.90;;;;;;4998924;28;20004;-79
2023/01/06 04:30:57;;;;;;;;;;;3.50;99.90;;;;;;5002728;28;19917;-78
2023/01/06 04:33:25;;;;;;;;;;;3.40;99.90;;;;;;4999730;28;19906;-77
2023/01/06 04:35:52;;;;;;;;;;;3.40;99.90;;;;;;5006089;28;19984;-77
2023/01/06 04:38:18;;;;;;;;;;;3.40;99.90;;;;;;4999812;28;20059;-79
2023/01/06 04:40:44;;;;;;;;;;;3.40;99.90;;;;;;4996133;28;19988;-76
2023/01/06 04:43:14;;;;;;;;;;;3.40;99.90;;;;;;5003052;28;19910;-77
2023/01/06 04:45:41;;;;;;;;;;;3.30;99.90;;;;;;4999963;28;20499;-78
2023/01/06 04:48:07;;;;;;;;;;;3.30;99.90;;;;;;4996400;28;19929;-77
2023/01/06 04:50:33;;;;;;;;;;;3.30;99.90;;;;;;4993560;28;19922;-78
2023/01/06 04:52:58;;;;;;;;;;;3.30;99.90;;;;;;4976725;28;20010;-78
2023/01/06 04:55:24;;;;;;;;;;;3.20;99.90;;;;;;4977224;28;19910;-78
2023/01/06 04:57:51;;;;;;;;;;;3.20;99.90;;;;;;4994210;28;19941;-77
2023/01/06 05:00:17;;;;;;;;;;;3.20;99.90;;;;;;4996269;28;19922;-78
2023/01/06 05:02:42;;;;;;;;;;;3.20;99.90;;;;;;4973285;28;20505;-79
2023/01/06 05:05:08;;;;;;;;;;;3.20;99.90;;;;;;4974930;28;20534;-79
2023/01/06 05:07:34;;;;;;;;;;;3.10;99.90;;;;;;4974227;28;20073;-78
2023/01/06 05:09:59;;;;;;;;;;;3.20;99.90;;;;;;4973653;28;19985;-78
2023/01/06 05:12:25;;;;;;;;;;;3.10;99.90;;;;;;4970099;28;19910;-78
2023/01/06 05:14:50;;;;;;;;;;;3.10;99.90;;;;;;4992528;28;19967;-79
2023/01/06 05:17:16;;;;;;;;;;;3.10;99.90;;;;;;5000793;28;19916;-78
2023/01/06 05:19:43;;;;;;;;;;;3.10;99.90;;;;;;5001530;28;19909;-78
2023/01/06 05:22:09;;;;;;;;;;;3.00;99.90;;;;;;4974626;28;20558;-79
2023/01/06 05:24:35;;;;;;;;;;;3.00;99.90;;;;;;4991560;28;19910;-76
2023/01/06 05:27:00;;;;;;;;;;;3.00;99.90;;;;;;4989527;28;19992;-80
2023/01/06 05:29:26;;;;;;;;;;;3.00;99.90;;;;;;4990726;28;20531;-77
2023/01/06 05:31:52;;;;;;;;;;;2.90;99.90;;;;;;4990700;28;20570;-78
2023/01/06 05:34:21;;;;;;;;;;;2.90;99.90;;;;;;4988570;28;20005;-79
2023/01/06 05:36:52;;;;;;;;;;;2.80;99.90;;;;;;4989931;28;19910;-79
2023/01/06 05:39:19;;;;;;;;;;;2.80;99.90;;;;;;4990582;28;19910;-79
2023/01/06 05:41:47;;;;;;;;;;;2.80;99.90;;;;;;4991289;28;19936;-79
2023/01/06 05:44:16;;;;;;;;;;;2.60;99.90;;;;;;4995750;28;20608;-77
2023/01/06 05:46:42;;;;;;;;;;;2.60;99.90;;;;;;4992715;28;19906;-77
2023/01/06 05:49:08;;;;;;;;;;;2.60;99.90;;;;;;4975872;28;19910;-76
2023/01/06 05:51:34;;;;;;;;;;;2.60;99.90;;;;;;4991312;28;19929;-79
2023/01/06 05:54:01;;;;;;;;;;;2.70;99.90;;;;;;4969065;28;20032;-79
2023/01/06 05:56:26;;;;;;;;;;;2.70;99.90;;;;;;4987359;28;19924;-78
2023/01/06 05:58:52;;;;;;;;;;;2.70;99.90;;;;;;4983767;28;20000;-80
2023/01/06 06:01:19;;;;;;;;;;;2.60;99.90;;;;;;4970704;28;20447;-81
2023/01/06 06:03:45;;;;;;;;;;;2.60;99.90;;;;;;4988714;28;20124;-79
2023/01/06 06:06:12;;;;;;;;;;;2.80;99.90;;;;;;4974993;28;19920;-81
2023/01/06 06:08:38;;;;;;;;;;;2.80;99.90;;;;;;4994924;28;20522;-78
2023/01/06 06:11:08;;;;;;;;;;;2.50;99.90;;;;;;4989548;28;19921;-78
2023/01/06 06:13:34;;;;;;;;;;;2.80;99.90;;;;;;4991062;28;19916;-78
2023/01/06 06:16:07;;;;;;;;;;;2.80;99.90;;;;;;4982802;28;19910;-79
2023/01/06 06:18:35;;;;;;;;;;;2.70;99.90;;;;;;4995230;28;19995;-78
2023/01/06 06:21:02;;;;;;;;;;;2.80;99.90;;;;;;4996001;28;19918;-81
2023/01/06 06:23:28;;;;;;;;;;;2.80;99.90;;;;;;4994950;28;19933;-81
2023/01/06 06:25:54;;;;;;;;;;;2.80;99.90;;;;;;4993097;28;19976;-78
2023/01/06 06:28:19;;;;;;;;;;;2.70;99.90;;;;;;4995726;28;20388;-80
2023/01/06 06:30:45;;;;;;;;;;;2.70;99.90;;;;;;4994382;28;19917;-79
2023/01/06 06:33:11;;;;;;;;;;;2.60;99.90;;;;;;4994839;28;19960;-78
2023/01/06 06:35:37;;;;;;;;;;;2.60;99.90;;;;;;5000428;28;19918;-77
2023/01/06 06:38:02;;;;;;;;;;;2.50;99.90;;;;;;4999751;28;19917;-78
2023/01/06 06:40:28;;;;;;;;;;;2.50;99.90;;;;;;5001138;28;19956;-80
2023/01/06 06:42:53;;;;;;;;;;;2.40;99.90;;;;;;5000415;28;19918;-78
2023/01/06 06:45:19;;;;;;;;;;;2.40;99.90;;;;;;5000535;28;19921;-79
2023/01/06 06:47:46;;;;;;;;;;;2.60;99.90;;;;;;4997488;28;20037;-81
2023/01/06 06:50:11;;;;;;;;;;;2.60;99.90;;;;;;4997992;28;19918;-79
2023/01/06 06:52:37;;;;;;;;;;;1.20;99.90;;;;;;5003508;28;19913;-79
2023/01/06 06:55:03;;;;;;;;;;;2.70;99.90;;;;;;5003959;28;19956;-78
2023/01/06 06:57:30;;;;;;;;;;;2.80;99.90;;;;;;5004407;28;19937;-79
2023/01/06 06:59:55;;;;;;;;;;;2.90;99.90;;;;;;5001937;28;19908;-78
2023/01/06 07:02:25;;;;;;;;;;;3.00;99.90;;;;;;4997324;28;19920;-79
2023/01/06 07:04:50;;;;;;;;;;;3.10;99.90;;;;;;4993533;28;19905;-78
2023/01/06 07:07:16;;;;;;;;;;;3.10;99.90;;;;;;4996433;28;19914;-78
2023/01/06 07:09:41;;;;;;;;;;;3.20;99.90;;;;;;4983976;28;20380;-79
2023/01/06 07:12:07;;;;;;;;;;;3.20;99.90;;;;;;4998571;28;19997;-78
2023/01/06 07:14:33;;;;;;;;;;;3.30;99.90;;;;;;4997994;28;19910;-77
2023/01/06 07:16:59;;;;;;;;;;;3.20;99.90;;;;;;4976417;28;19905;-78
2023/01/06 07:19:29;;;;;;;;;;;3.30;99.90;;;;;;4995246;28;19905;-78
2023/01/06 07:21:54;;;;;;;;;;;3.40;99.90;;;;;;4996142;28;19924;-78
2023/01/06 07:24:20;;;;;;;;;;;3.50;99.90;;;;;;4978657;28;20461;-79
2023/01/06 07:26:47;;;;;;;;;;;3.50;99.90;;;;;;4999593;28;19910;-79
2023/01/06 07:29:12;;;;;;;;;;;3.50;99.90;;;;;;4977574;28;19910;-77
2023/01/06 07:31:38;;;;;;;;;;;3.60;99.90;;;;;;4991001;28;19906;-77
2023/01/06 07:34:04;;;;;;;;;;;3.60;99.90;;;;;;4995152;28;19917;-77
2023/01/06 07:36:29;;;;;;;;;;;3.50;99.90;;;;;;4995016;28;19913;-77
2023/01/06 07:38:55;;;;;;;;;;;3.40;99.90;;;;;;4974106;28;20507;-77
2023/01/06 07:41:20;;;;;;;;;;;3.40;99.90;;;;;;4988751;28;19965;-76
2023/01/06 07:43:46;;;;;;;;;;;3.40;99.90;;;;;;4989446;28;19941;-76
2023/01/06 07:46:12;;;;;;;;;;;3.40;99.90;;;;;;4973856;28;19917;-75
2023/01/06 07:48:40;;;;;;;;;;;3.50;99.90;;;;;;4979150;28;20634;-80
2023/01/06 07:51:05;;;;;;;;;;;3.50;99.90;;;;;;4988934;28;20036;-78
2023/01/06 07:53:33;;;;;;;;;;;3.50;99.90;;;;;;4972578;28;20550;-80
2023/01/06 07:55:58;;;;;;;;;;;3.60;99.90;;;;;;4995361;28;19934;-81
2023/01/06 07:58:24;;;;;;;;;;;3.70;99.90;;;;;;4999417;28;19909;-80
2023/01/06 08:00:50;;;;;;;;;;;3.70;99.90;;;;;;4992840;28;19977;-78
2023/01/06 08:03:16;;;;;;;;;;;3.70;99.90;;;;;;5002361;28;19906;-77
2023/01/06 08:05:42;;;;;;;;;;;3.80;99.90;;;;;;5007809;28;19917;-75
2023/01/06 08:08:08;;;;;;;;;;;3.90;99.90;;;;;;5000391;28;20004;-76
2023/01/06 08:10:37;;;;;;;;;;;3.80;99.90;;;;;;4981696;28;20004;-76
2023/01/06 08:13:04;;;;;;;;;;;3.80;99.90;;;;;;4988338;28;19917;-78
2023/01/06 08:15:29;;;;;;;;;;;3.90;99.90;;;;;;5008615;28;20608;-75
2023/01/06 08:17:55;;;;;;;;;;;4.00;99.90;;;;;;5010635;28;19906;-75
2023/01/06 08:20:21;;;;;;;;;;;4.00;99.90;;;;;;5015816;28;19906;-78
2023/01/06 08:22:47;;;;;;;;;;;4.10;99.90;;;;;;5017910;28;19977;-77
2023/01/06 08:25:12;;;;;;;;;;;5.50;99.90;;;;;;5013054;28;19956;-75
2023/01/06 08:27:41;;;;;;;;;;;4.30;99.90;;;;;;5008661;28;19948;-77
2023/01/06 08:30:07;;;;;;;;;;;4.20;99.90;;;;;;5010581;28;19916;-77
2023/01/06 08:32:33;;;;;;;;;;;4.20;99.90;;;;;;5008201;28;20003;-76
2023/01/06 08:34:59;;;;;;;;;;;4.30;99.90;;;;;;5008295;28;19998;-78
2023/01/06 08:37:27;;;;;;;;;;;4.30;99.90;;;;;;5004718;28;19910;-78
2023/01/06 08:39:52;;;;;;;;;;;4.40;99.90;;;;;;4994147;28;19917;-77
2023/01/06 08:42:18;;;;;;;;;;;4.40;99.90;;;;;;4992060;28;19918;-76
2023/01/06 08:44:45;;;;;;;;;;;4.40;99.90;;;;;;4994344;28;19906;-77
2023/01/06 08:47:11;;;;;;;;;;;4.50;99.90;;;;;;4988362;28;19916;-77
2023/01/06 08:49:36;;;;;;;;;;;4.50;99.90;;;;;;4992506;28;20000;-78
2023/01/06 08:52:02;;;;;;;;;;;4.80;99.90;;;;;;4994026;28;19977;-78
2023/01/06 08:54:28;;;;;;;;;;;4.70;99.90;;;;;;4977882;28;19977;-79
2023/01/06 08:57:03;;;;;;;;;;;4.60;99.90;;;;;;4993355;28;20000;-81
2023/01/06 08:59:32;;;;;;;;;;;4.80;99.90;;;;;;4993880;28;19948;-82
2023/01/06 09:01:58;;;;;;;;;;;5.00;99.90;;;;;;4993303;28;19913;-78
2023/01/06 09:04:24;;;;;;;;;;;5.20;99.90;;;;;;5002359;28;20248;-79
2023/01/06 09:06:51;;;;;;;;;;;5.40;99.90;;;;;;5015067;28;19916;-78
2023/01/06 09:09:17;;;;;;;;;;;5.50;99.90;;;;;;5016974;28;19910;-79
2023/01/06 09:11:43;;;;;;;;;;;5.60;99.90;;;;;;5007417;28;19944;-79
2023/01/06 09:14:09;;;;;;;;;;;5.70;99.90;;;;;;4996412;28;19993;-77
2023/01/06 09:16:38;;;;;;;;;;;5.70;99.90;;;;;;4995287;28;19941;-78
2023/01/06 09:19:04;;;;;;;;;;;5.90;99.90;;;;;;4981664;28;19910;-81
2023/01/06 09:21:30;;;;;;;;;;;7.50;99.90;;;;;;4984874;28;19929;-77
2023/01/06 09:23:56;;;;;;;;;;;6.20;99.90;;;;;;4981571;28;19913;-78
2023/01/06 09:26:26;;;;;;;;;;;6.30;99.90;;;;;;4993401;28;20476;-77
2023/01/06 09:28:52;;;;;;;;;;;6.60;99.90;;;;;;4987723;28;19917;-79
2023/01/06 09:31:21;;;;;;;;;;;6.60;99.90;;;;;;4998441;28;19933;-80
2023/01/06 09:34:10;;;;;;;;;;;6.00;99.90;;;;;;5002998;28;19981;-79
2023/01/06 09:36:36;;;;;;;;;;;6.70;99.90;;;;;;4998775;28;19945;-79
2023/01/06 09:39:01;;;;;;;;;;;6.80;99.90;;;;;;4987564;28;19913;-78
2023/01/06 09:41:51;;;;;;;;;;;7.30;99.90;;;;;;5001786;28;19926;-77
2023/01/06 09:44:29;;;;;;;;;;;7.70;99.90;;;;;;5000075;28;19917;-77
2023/01/06 09:46:58;;;;;;;;;;;7.70;99.90;;;;;;4975774;28;19912;-77
2023/01/06 09:49:33;;;;;;;;;;;7.20;99.90;;;;;;4994319;28;19914;-78
2023/01/06 09:52:00;;;;;;;;;;;7.70;99.90;;;;;;4991299;28;19925;-77
2023/01/06 09:54:32;;;;;;;;;;;7.80;99.90;;;;;;4993974;28;20032;-77
2023/01/06 09:57:16;;;;;;;;;;;7.80;99.90;;;;;;5012760;28;19909;-77
2023/01/06 09:59:56;;;;;;;;;;;7.90;99.90;;;;;;5011788;28;19910;-77
2023/01/06 10:02:28;;;;;;;;;;;7.90;99.90;;;;;;4998330;28;19914;-78
2023/01/06 10:04:53;;;;;;;;;;;8.00;99.90;;;;;;4987964;28;19920;-76
2023/01/06 10:07:22;;;;;;;;;;;8.10;99.90;;;;;;5014573;28;19956;-81
2023/01/06 10:09:51;;;;;;;;;;;8.20;99.90;;;;;;5010942;28;19960;-79
2023/01/06 10:12:26;;;;;;;;;;;8.30;99.90;;;;;;5009099;28;19948;-76
2023/01/06 10:14:57;;;;;;;;;;;8.50;99.90;;;;;;5007748;28;20616;-80
2023/01/06 10:17:41;;;;;;;;;;;6.90;99.90;;;;;;5010144;28;19913;-79
2023/01/06 10:20:26;;;;;;;;;;;8.80;99.90;;;;;;5002180;28;19957;-77
2023/01/06 10:22:51;;;;;;;;;;;8.90;99.90;;;;;;5016004;28;19921;-79
2023/01/06 10:25:19;;;;;;;;;;;8.80;99.90;;;;;;5022247;28;20415;-79
2023/01/06 10:27:58;;;;;;;;;;;8.60;99.90;;;;;;5025857;28;19911;-78
2023/01/06 10:30:30;;;;;;;;;;;8.80;99.90;;;;;;5012861;28;19909;-79
2023/01/06 10:32:56;;;;;;;;;;;8.90;99.90;;;;;;5002024;28;19914;-79
2023/01/06 10:35:23;;;;;;;;;;;8.30;99.90;;;;;;4996454;28;19906;-77
2023/01/06 10:38:02;;;;;;;;;;;6.70;99.90;;;;;;5003458;28;20583;-78
2023/01/06 10:40:35;;;;;;;;;;;9.20;99.90;;;;;;4992365;28;19917;-80
2023/01/06 10:43:05;;;;;;;;;;;9.20;99.90;;;;;;5019742;28;19916;-80
2023/01/06 10:45:41;;;;;;;;;;;10.90;99.90;;;;;;5013110;28;19909;-81
2023/01/06 10:48:11;;;;;;;;;;;9.40;99.90;;;;;;5011346;28;19914;-78
2023/01/06 10:50:39;;;;;;;;;;;10.80;99.90;;;;;;5011978;28;20205;-80
2023/01/06 10:53:04;;;;;;;;;;;9.40;99.90;;;;;;5005215;28;19910;-78
2023/01/06 10:55:39;;;;;;;;;;;8.10;99.90;;;;;;4977187;28;20452;-80
2023/01/06 10:58:35;;;;;;;;;;;9.70;99.90;;;;;;4988677;28;19913;-78
2023/01/06 11:01:17;;;;;;;;;;;9.80;99.90;;;;;;4950113;28;19914;-80
2023/01/06 11:03:43;;;;;;;;;;;9.80;99.90;;;;;;4972171;28;19929;-80
2023/01/06 11:06:15;;;;;;;;;;;9.90;99.90;;;;;;4974078;28;20502;-79
2023/01/06 11:08:42;;;;;;;;;;;9.50;99.90;;;;;;4974347;28;19981;-79
2023/01/06 11:11:12;;;;;;;;;;;10.10;99.90;;;;;;4962322;28;19949;-80
2023/01/06 11:13:40;;;;;;;;;;;10.20;99.90;;;;;;4954181;29;19911;-78
2023/01/06 11:16:07;;;;;;;;;;;10.30;99.90;;;;;;4949122;29;20058;-80
2023/01/06 11:18:37;;;;;;;;;;;10.40;99.90;;;;;;4954236;28;19965;-79
2023/01/06 11:21:08;;;;;;;;;;;10.50;99.90;;;;;;4938802;29;19919;-77
2023/01/06 11:23:34;;;;;;;;;;;10.50;99.90;;;;;;4951313;28;19981;-79
2023/01/06 11:26:11;;;;;;;;;;;10.60;99.90;;;;;;4937859;29;19915;-77
2023/01/06 11:28:37;;;;;;;;;;;10.70;99.90;;;;;;4967828;28;19910;-75
2023/01/06 11:31:12;;;;;;;;;;;10.90;99.90;;;;;;4969959;28;19910;-76
2023/01/06 11:33:46;;;;;;;;;;;11.00;99.90;;;;;;4955229;28;19910;-78
2023/01/06 11:36:13;;;;;;;;;;;11.00;99.90;;;;;;4954774;28;19913;-78
2023/01/06 11:38:43;;;;;;;;;;;11.10;99.90;;;;;;4975030;28;20012;-82
2023/01/06 11:41:12;;;;;;;;;;;7.90;99.90;;;;;;4959889;28;19933;-82
2023/01/06 11:43:41;;;;;;;;;;;11.00;99.90;;;;;;4975659;28;19953;-80
2023/01/06 11:46:08;;;;;;;;;;;10.60;99.90;;;;;;4962711;28;19985;-79
2023/01/06 11:48:55;;;;;;;;;;;11.20;99.90;;;;;;4982726;28;20403;-78
2023/01/06 11:51:44;;;;;;;;;;;10.90;99.90;;;;;;5000202;28;19921;-81
2023/01/06 11:54:28;;;;;;;;;;;11.40;99.90;;;;;;4990164;28;19963;-81
2023/01/06 11:56:58;;;;;;;;;;;11.60;99.90;;;;;;4999487;28;19921;-81
2023/01/06 11:59:40;;;;;;;;;;;11.70;99.90;;;;;;4965824;28;19921;-78
2023/01/06 12:02:10;;;;;;;;;;;11.80;99.90;;;;;;4992722;28;19917;-80
2023/01/06 12:04:43;;;;;;;;;;;11.90;99.90;;;;;;4999746;28;19906;-81
2023/01/06 12:07:41;;;;;;;;;;;11.10;99.90;;;;;;4969571;28;19909;-79
2023/01/06 12:10:13;;;;;;;;;;;14.50;99.90;;;;;;4967174;28;19925;-77
2023/01/06 12:12:39;;;;;;;;;;;12.20;99.90;;;;;;4980857;28;20484;-85
2023/01/06 12:15:10;;;;;;;;;;;12.40;99.90;;;;;;4963820;28;19913;-82
2023/01/06 12:17:42;;;;;;;;;;;11.40;99.90;;;;;;4948806;28;19917;-78
2023/01/06 12:20:14;;;;;;;;;;;9.10;99.90;;;;;;4962016;28;19964;-88
2023/01/06 12:22:39;;;;;;;;;;;12.70;99.90;;;;;;4965545;28;20677;-78
2023/01/06 12:25:09;;;;;;;;;;;12.40;99.90;;;;;;4978917;28;20008;-79
2023/01/06 12:27:45;;;;;;;;;;;12.10;99.90;;;;;;4962563;28;19906;-79
2023/01/06 12:30:16;;;;;;;;;;;13.40;99.90;;;;;;4979032;28;19910;-88
2023/01/06 12:32:43;;;;;;;;;;;13.00;99.90;;;;;;4962566;28;20553;-82
2023/01/06 12:35:15;;;;;;;;;;;12.10;99.90;;;;;;4955662;28;20059;-80
2023/01/06 12:37:43;;;;;;;;;;;13.20;99.90;;;;;;4940290;28;19993;-80
2023/01/06 12:40:21;;;;;;;;;;;13.30;99.90;;;;;;4940485;28;19925;-91
2023/01/06 12:42:57;;;;;;;;;;;13.30;99.90;;;;;;4940461;28;19925;-81
2023/01/06 12:45:41;;;;;;;;;;;13.40;99.90;;;;;;4935767;28;20122;-86
2023/01/06 12:48:15;;;;;;;;;;;13.70;99.90;;;;;;4962879;28;20001;-84
2023/01/06 12:50:47;;;;;;;;;;;14.50;99.90;;;;;;4967940;28;19972;-78
2023/01/06 12:53:19;;;;;;;;;;;13.70;99.90;;;;;;4965077;28;19918;-78
2023/01/06 12:55:51;;;;;;;;;;;13.70;99.90;;;;;;5000496;28;19909;-82
2023/01/06 12:58:27;;;;;;;;;;;13.60;99.90;;;;;;5001141;28;20411;-80
2023/01/06 13:01:00;;;;;;;;;;;13.60;99.90;;;;;;5000165;28;19920;-86
2023/01/06 13:03:29;;;;;;;;;;;13.60;99.90;;;;;;5003035;28;20126;-84
2023/01/06 13:06:06;;;;;;;;;;;13.60;99.90;;;;;;5001869;28;19937;-82
2023/01/06 13:08:50;;;;;;;;;;;13.50;99.90;;;;;;4997278;28;20028;-81
2023/01/06 13:11:19;;;;;;;;;;;13.40;99.90;;;;;;4961565;28;20510;-79
2023/01/06 13:14:01;;;;;;;;;;;13.30;99.90;;;;;;4944470;28;20029;-79
2023/01/06 13:16:43;;;;;;;;;;;13.00;99.90;;;;;;4944743;28;19910;-81
2023/01/06 13:19:24;;;;;;;;;;;13.00;99.90;;;;;;4944553;28;19910;-80
2023/01/06 13:21:52;;;;;;;;;;;12.80;99.90;;;;;;4946234;28;20119;-80
2023/01/06 13:24:17;;;;;;;;;;;11.30;99.90;;;;;;4944562;28;20435;-81
2023/01/06 13:26:43;;;;;;;;;;;12.70;99.90;;;;;;4952355;28;19917;-81
2023/01/06 13:29:24;;;;;;;;;;;11.80;99.90;;;;;;4980427;28;19910;-79
2023/01/06 13:31:52;;;;;;;;;;;12.60;99.90;;;;;;4963287;28;20612;-80
2023/01/06 13:34:21;;;;;;;;;;;12.50;99.90;;;;;;4980912;28;19910;-80
2023/01/06 13:36:58;;;;;;;;;;;12.60;99.90;;;;;;4980791;28;19915;-79
2023/01/06 13:39:25;;;;;;;;;;;12.70;99.90;;;;;;4980497;28;19910;-81
2023/01/06 13:41:56;;;;;;;;;;;12.60;99.90;;;;;;4962344;28;20101;-80
2023/01/06 13:44:24;;;;;;;;;;;14.30;99.90;;;;;;4962681;28;19917;-80
2023/01/06 13:46:51;;;;;;;;;;;12.70;99.90;;;;;;4980958;28;19956;-81
2023/01/06 13:49:19;;;;;;;;;;;12.70;99.90;;;;;;4979671;28;19912;-78
2023/01/06 13:51:46;;;;;;;;;;;12.60;99.90;;;;;;4980014;28;20184;-81
2023/01/06 13:54:30;;;;;;;;;;;12.70;99.90;;;;;;4962672;28;19906;-81
2023/01/06 13:57:14;;;;;;;;;;;12.80;99.90;;;;;;4983874;28;20016;-81
2023/01/06 13:59:50;;;;;;;;;;;12.80;99.90;;;;;;4983866;28;20597;-79
2023/01/06 14:02:34;;;;;;;;;;;12.80;99.90;;;;;;4983769;28;19914;-80
2023/01/06 14:05:21;;;;;;;;;;;12.80;99.90;;;;;;4983120;28;20001;-80
2023/01/06 14:07:54;;;;;;;;;;;12.70;99.90;;;;;;4938599;28;19950;-79
2023/01/06 14:10:41;;;;;;;;;;;12.60;99.90;;;;;;4939720;29;19977;-84
2023/01/06 14:13:23;;;;;;;;;;;12.60;99.90;;;;;;4940446;29;20542;-81
2023/01/06 14:15:58;;;;;;;;;;;12.60;99.90;;;;;;4941305;28;19914;-84
2023/01/06 14:18:44;;;;;;;;;;;12.60;99.90;;;;;;4925802;29;20002;-81
2023/01/06 14:21:12;;;;;;;;;;;12.80;99.90;;;;;;4936626;28;19919;-80
2023/01/06 14:23:59;;;;;;;;;;;12.80;99.90;;;;;;4920310;29;20024;-80
2023/01/06 14:26:44;;;;;;;;;;;12.90;99.90;;;;;;4940555;28;20470;-78
2023/01/06 14:29:42;;;;;;;;;;;13.00;99.90;;;;;;4936383;28;19953;-79
2023/01/06 14:32:13;;;;;;;;;;;13.00;99.90;;;;;;4910776;29;19915;-79
2023/01/06 14:34:47;;;;;;;;;;;13.00;99.90;;;;;;4907081;28;20543;-78
2023/01/06 14:37:14;;;;;;;;;;;13.00;99.90;;;;;;4919501;29;20568;-81
2023/01/06 14:39:41;;;;;;;;;;;12.90;99.90;;;;;;4913866;29;20710;-82
2023/01/06 14:42:12;;;;;;;;;;;12.80;99.90;;;;;;4902732;29;19977;-79
2023/01/06 14:44:37;;;;;;;;;;;12.50;99.90;;;;;;4909076;29;20311;-79
2023/01/06 14:47:05;;;;;;;;;;;12.40;99.90;;;;;;4923927;29;19944;-79